KAKO/AKO METAR and TAF weather

Enter ICAO airport designator
Station Type Date Time Source
KAKO METAR 2019/12/12 11:53 UTC NOAA

KAKO 121153Z AUTO 28005KT 10SM CLR M03/M07 A3000 RMK AO2 SLP175 T10281067 10006 21044 53004


Station Type Date Time Source
KAKO Decoded METAR 2019/12/12 11:53 UTC NOAA

COLORADO PLAINS REGIONAL, CO, United States (KAKO) 40-10N 103-13W 1421M
Dec 12, 2019 - 06:53 AM EST / 2019.12.12 1153 UTC
Wind: from the W (280 degrees) at 6 MPH (5 KT):0
Visibility: 10 mile(s):0
Sky conditions: clear
Temperature: 27.0 F (-2.8 C)
Windchill: 19 F (-7 C):1
Dew Point: 19.9 F (-6.7 C)
Relative Humidity: 74%
Pressure (altimeter): 30 in. Hg (1015 hPa)
Pressure tendency: 0.01 inches (0.4 hPa) higher than three hours ago
ob: KAKO 121153Z AUTO 28005KT 10SM CLR M03/M07 A3000 RMK AO2 SLP175 T10281067 10006 21044 53004
cycle: 12

Station Type Date Time Source
KAKO TAF UTC NOAA

Error!

Example: see airport list